Time;durP1;ratioP1;P1;durP2;ratioP2;P2;SDS_P1;SDS_P2;PMS_P1;PMS_P2;Temp;Humidity;BMP_temperature;BMP_pressure;BME280_temperature;BME280_humidity;BME280_pressure;Samples;Min_cycle;Max_cycle;Signal;HPM_P1;HPM_P2
2023/06/28 00:00:04;;;;;;;1.60;0.70;;;25.90;39.10;;;;;;5013654;28;20088;-78
2023/06/28 00:02:35;;;;;;;1.27;0.52;;;25.90;39.20;;;;;;4995601;28;20054;-78
2023/06/28 00:05:09;;;;;;;2.40;0.50;;;25.90;39.10;;;;;;5013803;28;20164;-78
2023/06/28 00:07:35;;;;;;;2.05;0.70;;;25.90;39.10;;;;;;5013506;28;20396;-78
2023/06/28 00:10:00;;;;;;;0.93;0.50;;;25.90;39.10;;;;;;5013337;28;20046;-78
2023/06/28 00:12:29;;;;;;;1.48;0.60;;;25.70;54.90;;;;;;5011934;28;20511;-78
2023/06/28 00:14:55;;;;;;;0.80;0.47;;;25.80;39.20;;;;;;5013546;28;20037;-78
2023/06/28 00:17:27;;;;;;;1.30;0.50;;;25.80;39.10;;;;;;5013429;28;20080;-78
2023/06/28 00:19:57;;;;;;;1.75;0.63;;;25.80;39.20;;;;;;5013485;28;20033;-78
2023/06/28 00:22:28;;;;;;;1.45;0.80;;;25.80;39.20;;;;;;5013752;28;20053;-78
2023/06/28 00:24:55;;;;;;;1.58;0.50;;;25.80;39.20;;;;;;5013483;28;20033;-78
2023/06/28 00:27:20;;;;;;;1.88;0.93;;;25.80;39.20;;;;;;5013273;28;20061;-78
2023/06/28 00:29:46;;;;;;;1.25;0.82;;;25.80;39.30;;;;;;5013405;28;20065;-78
2023/06/28 00:32:11;;;;;;;1.55;0.60;;;25.70;39.20;;;;;;5013266;28;20105;-78
2023/06/28 00:34:37;;;;;;;0.90;0.38;;;25.80;39.20;;;;;;5013220;28;20527;-78
2023/06/28 00:37:03;;;;;;;0.55;0.30;;;25.70;39.20;;;;;;5013103;28;20069;-78
2023/06/28 00:39:29;;;;;;;0.75;0.65;;;25.80;39.30;;;;;;5012953;28;20080;-78
2023/06/28 00:41:54;;;;;;;0.68;0.40;;;25.70;39.90;;;;;;5012986;28;20029;-78
2023/06/28 00:44:20;;;;;;;1.67;0.70;;;25.70;39.30;;;;;;5012877;28;20018;-78
2023/06/28 00:46:47;;;;;;;0.80;0.40;;;25.70;39.30;;;;;;5013017;28;20480;-78
2023/06/28 00:49:13;;;;;;;1.48;0.77;;;25.70;39.30;;;;;;5012871;28;20025;-78
2023/06/28 00:51:39;;;;;;;0.68;0.40;;;25.70;39.40;;;;;;5012927;28;20049;-78
2023/06/28 00:54:05;;;;;;;1.13;0.60;;;25.70;39.30;;;;;;5012983;28;20329;-78
2023/06/28 00:56:31;;;;;;;0.80;0.40;;;25.70;39.30;;;;;;5011680;28;20600;-78
2023/06/28 00:58:57;;;;;;;1.02;0.43;;;25.70;39.30;;;;;;5012622;28;20092;-78
2023/06/28 01:01:24;;;;;;;1.25;0.70;;;25.30;55.40;;;;;;5012723;28;20050;-78
2023/06/28 01:03:51;;;;;;;1.17;0.60;;;25.60;39.30;;;;;;5012394;28;20056;-78
2023/06/28 01:06:17;;;;;;;1.65;0.55;;;25.60;39.30;;;;;;5012408;28;20084;-77
2023/06/28 01:08:44;;;;;;;0.90;0.60;;;25.60;39.30;;;;;;5012872;28;20036;-78
2023/06/28 01:11:10;;;;;;;1.20;0.40;;;25.60;39.30;;;;;;5012506;28;20376;-78
2023/06/28 01:13:38;;;;;;;2.33;0.90;;;25.60;39.40;;;;;;5012333;28;20030;-78
2023/06/28 01:16:05;;;;;;;0.75;0.60;;;25.60;39.40;;;;;;5012475;28;20114;-78
2023/06/28 01:18:33;;;;;;;1.38;0.40;;;25.60;39.40;;;;;;5012352;28;20034;-78
2023/06/28 01:21:02;;;;;;;1.50;0.80;;;25.60;39.50;;;;;;5012496;28;20069;-78
2023/06/28 01:23:27;;;;;;;1.15;0.40;;;25.60;39.40;;;;;;5012267;28;20075;-78
2023/06/28 01:25:54;;;;;;;0.50;0.50;;;25.50;39.40;;;;;;5012366;28;20049;-78
2023/06/28 01:28:21;;;;;;;1.55;0.50;;;25.50;39.40;;;;;;5012479;28;20361;-78
2023/06/28 01:30:48;;;;;;;0.82;0.40;;;25.50;39.40;;;;;;5011937;28;20531;-78
2023/06/28 01:33:15;;;;;;;2.17;0.60;;;25.50;39.50;;;;;;5011916;28;20069;-78
2023/06/28 01:35:41;;;;;;;1.20;0.50;;;25.50;39.50;;;;;;5011754;28;20026;-78
2023/06/28 01:38:09;;;;;;;1.00;0.75;;;25.50;39.50;;;;;;5012248;28;20065;-78
2023/06/28 01:40:35;;;;;;;1.25;0.47;;;25.50;39.50;;;;;;4994238;28;20073;-78
2023/06/28 01:43:05;;;;;;;1.33;0.57;;;25.50;39.50;;;;;;5012076;28;20026;-78
2023/06/28 01:45:31;;;;;;;1.05;0.45;;;25.50;39.50;;;;;;5012272;28;20044;-78
2023/06/28 01:47:57;;;;;;;1.58;0.50;;;25.50;39.50;;;;;;5011953;28;20021;-78
2023/06/28 01:50:23;;;;;;;1.55;0.52;;;25.50;39.60;;;;;;5012091;28;20030;-78
2023/06/28 01:52:49;;;;;;;1.05;0.50;;;25.50;39.60;;;;;;5011951;28;20423;-78
2023/06/28 01:55:14;;;;;;;1.25;0.68;;;25.50;39.60;;;;;;5011829;28;20030;-78
2023/06/28 01:57:40;;;;;;;0.60;0.43;;;25.40;39.60;;;;;;5011802;28;20034;-78
2023/06/28 02:00:10;;;;;;;1.10;0.50;;;25.40;39.60;;;;;;5011863;28;20052;-78
2023/06/28 02:02:36;;;;;;;2.00;0.52;;;25.40;39.70;;;;;;5011615;28;20077;-78
2023/06/28 02:05:02;;;;;;;0.60;0.50;;;25.40;39.80;;;;;;5011700;28;20485;-78
2023/06/28 02:07:28;;;;;;;1.05;0.45;;;25.40;39.80;;;;;;5011878;28;20109;-78
2023/06/28 02:09:53;;;;;;;0.50;0.50;;;25.40;39.80;;;;;;5011524;28;20026;-78
2023/06/28 02:12:19;;;;;;;1.27;0.70;;;25.40;39.80;;;;;;5011415;28;20397;-77
2023/06/28 02:14:44;;;;;;;1.10;0.65;;;25.40;39.80;;;;;;5011539;28;20065;-77
2023/06/28 02:17:13;;;;;;;2.25;0.70;;;25.40;39.80;;;;;;5011756;28;20034;-77
2023/06/28 02:19:42;;;;;;;0.50;0.35;;;25.40;39.90;;;;;;5011499;28;20030;-77
2023/06/28 02:22:08;;;;;;;0.88;0.70;;;25.40;39.90;;;;;;5011458;28;20034;-78
2023/06/28 02:24:34;;;;;;;1.08;0.57;;;25.30;39.80;;;;;;5011585;28;20413;-78
2023/06/28 02:27:00;;;;;;;0.90;0.50;;;25.30;39.90;;;;;;5011350;28;20370;-77
2023/06/28 02:29:26;;;;;;;1.20;0.52;;;25.30;39.90;;;;;;5011302;28;20093;-77
2023/06/28 02:31:52;;;;;;;0.60;0.40;;;25.30;39.90;;;;;;5011298;28;20062;-78
2023/06/28 02:34:17;;;;;;;1.23;0.60;;;25.30;40.00;;;;;;5011998;28;20648;-78
2023/06/28 02:36:43;;;;;;;0.80;0.43;;;25.30;40.00;;;;;;5011304;28;20041;-77
2023/06/28 02:39:09;;;;;;;1.20;0.40;;;25.30;40.00;;;;;;5011583;28;20032;-77
2023/06/28 02:41:35;;;;;;;1.63;0.57;;;25.30;40.00;;;;;;5011596;28;20113;-77
2023/06/28 02:44:01;;;;;;;1.05;0.50;;;25.30;40.00;;;;;;5011106;28;20476;-78
2023/06/28 02:46:27;;;;;;;1.02;0.65;;;25.30;40.00;;;;;;5011298;28;20033;-77
2023/06/28 02:48:53;;;;;;;1.02;0.70;;;25.20;40.00;;;;;;5011379;28;20040;-77
2023/06/28 02:51:19;;;;;;;1.00;0.85;;;25.30;40.10;;;;;;5011034;28;20480;-77
2023/06/28 02:53:45;;;;;;;0.77;0.43;;;25.30;40.10;;;;;;5011391;28;20056;-78
2023/06/28 02:56:15;;;;;;;0.63;0.40;;;25.20;40.10;;;;;;5010944;28;20026;-78
2023/06/28 02:58:42;;;;;;;1.40;0.70;;;25.30;40.10;;;;;;5010966;28;20115;-78
2023/06/28 03:01:09;;;;;;;1.15;0.70;;;25.40;43.10;;;;;;5010759;28;20280;-77
2023/06/28 03:03:36;;;;;;;1.63;0.73;;;25.20;40.20;;;;;;5011460;28;20051;-78
2023/06/28 03:06:02;;;;;;;2.20;0.85;;;25.20;40.20;;;;;;5010923;28;20484;-78
2023/06/28 03:08:27;;;;;;;1.60;0.45;;;25.20;40.20;;;;;;5011010;28;20108;-77
2023/06/28 03:10:53;;;;;;;1.38;0.68;;;25.20;40.30;;;;;;5010878;28;20041;-77
2023/06/28 03:13:19;;;;;;;1.63;0.55;;;25.20;40.20;;;;;;5010925;28;20037;-77
2023/06/28 03:15:45;;;;;;;2.80;0.77;;;25.20;40.20;;;;;;5010856;28;20570;-77
2023/06/28 03:18:11;;;;;;;1.33;0.50;;;25.20;40.30;;;;;;5011098;28;20038;-78
2023/06/28 03:20:36;;;;;;;0.85;0.60;;;25.20;40.30;;;;;;5013601;28;20057;-78
2023/06/28 03:23:03;;;;;;;1.42;0.60;;;25.20;40.30;;;;;;5014379;28;20022;-78
2023/06/28 03:25:29;;;;;;;1.27;0.70;;;25.20;40.30;;;;;;5014440;28;20465;-77
2023/06/28 03:27:55;;;;;;;1.98;0.73;;;25.10;40.40;;;;;;4996695;28;20034;-78
2023/06/28 03:30:21;;;;;;;1.95;0.68;;;25.20;40.40;;;;;;5014294;28;20188;-77
2023/06/28 03:32:47;;;;;;;0.93;0.52;;;25.10;40.50;;;;;;5014673;28;20113;-78
2023/06/28 03:35:12;;;;;;;1.00;0.50;;;25.10;40.40;;;;;;5014354;28;20109;-78
2023/06/28 03:37:38;;;;;;;0.98;0.60;;;25.30;40.60;;;;;;5014208;28;20121;-77
2023/06/28 03:40:04;;;;;;;1.30;0.50;;;25.10;40.50;;;;;;5014219;28;20061;-78
2023/06/28 03:42:30;;;;;;;1.45;0.50;;;25.10;40.50;;;;;;5014465;28;20033;-77
2023/06/28 03:44:55;;;;;;;2.33;0.73;;;25.10;40.50;;;;;;5014322;28;20026;-77
2023/06/28 03:47:21;;;;;;;1.00;0.90;;;25.10;40.60;;;;;;5014151;28;20060;-78
2023/06/28 03:49:47;;;;;;;1.25;1.10;;;25.10;40.60;;;;;;5014226;28;20029;-77
2023/06/28 03:52:13;;;;;;;1.67;0.95;;;25.10;40.70;;;;;;5014171;28;20037;-77
2023/06/28 03:54:39;;;;;;;1.90;1.40;;;25.10;40.80;;;;;;4996264;28;20448;-77
2023/06/28 03:57:05;;;;;;;2.40;1.63;;;25.10;40.80;;;;;;5013732;28;20063;-77
2023/06/28 03:59:30;;;;;;;2.10;2.00;;;24.60;57.00;;;;;;5014168;28;20030;-78
2023/06/28 04:01:56;;;;;;;3.00;2.80;;;25.10;40.90;;;;;;5013731;28;20033;-77
2023/06/28 04:04:22;;;;;;;4.00;3.70;;;25.00;40.90;;;;;;5013661;28;20459;-77
2023/06/28 04:06:48;;;;;;;4.72;4.28;;;25.00;41.10;;;;;;5013830;28;20065;-77
2023/06/28 04:09:15;;;;;;;5.55;5.15;;;25.00;41.00;;;;;;5013640;28;20124;-77
2023/06/28 04:11:44;;;;;;;7.50;6.70;;;25.00;41.30;;;;;;5014149;28;20436;-78
2023/06/28 04:14:10;;;;;;;8.10;7.45;;;25.00;41.30;;;;;;5013599;28;20473;-77
2023/06/28 04:16:36;;;;;;;9.32;8.52;;;25.00;41.40;;;;;;5013449;28;20050;-77
2023/06/28 04:19:04;;;;;;;9.68;8.85;;;25.00;41.40;;;;;;5013903;28;20025;-77
2023/06/28 04:21:31;;;;;;;10.45;9.65;;;25.00;41.40;;;;;;5013683;28;20022;-77
2023/06/28 04:23:57;;;;;;;12.90;11.75;;;25.00;41.40;;;;;;5013437;28;20104;-78
2023/06/28 04:26:24;;;;;;;14.05;12.90;;;25.00;41.40;;;;;;5013209;28;20030;-77
2023/06/28 04:28:50;;;;;;;14.80;13.60;;;25.00;41.50;;;;;;4996384;28;20044;-78
2023/06/28 04:31:15;;;;;;;15.77;14.50;;;24.90;41.40;;;;;;5012180;28;20104;-77
2023/06/28 04:33:41;;;;;;;17.50;15.90;;;25.00;41.60;;;;;;5013265;28;20381;-78
2023/06/28 04:36:07;;;;;;;16.98;15.52;;;24.90;41.50;;;;;;5013201;28;20505;-77
2023/06/28 04:38:32;;;;;;;18.63;16.92;;;24.90;41.50;;;;;;5013147;28;20038;-77
2023/06/28 04:40:59;;;;;;;16.63;15.23;;;24.90;41.50;;;;;;5013592;28;20104;-77
2023/06/28 04:43:24;;;;;;;17.70;16.20;;;24.90;41.50;;;;;;5013012;28;20052;-77
2023/06/28 04:45:50;;;;;;;18.25;16.65;;;24.90;41.60;;;;;;5013163;28;20030;-77
2023/06/28 04:48:16;;;;;;;18.20;16.80;;;24.90;41.50;;;;;;5013000;28;20165;-78
2023/06/28 04:50:41;;;;;;;18.38;16.67;;;24.90;41.70;;;;;;4995399;28;20033;-78
2023/06/28 04:53:07;;;;;;;16.17;14.85;;;24.90;41.60;;;;;;5013217;28;20030;-78
2023/06/28 04:55:34;;;;;;;17.30;15.77;;;24.90;41.60;;;;;;5012894;28;20088;-77
2023/06/28 04:58:05;;;;;;;16.58;15.18;;;24.90;41.70;;;;;;5013156;28;20461;-77
2023/06/28 05:00:31;;;;;;;17.42;15.82;;;24.90;41.60;;;;;;5012800;28;20072;-78
2023/06/28 05:02:59;;;;;;;16.17;14.68;;;24.90;41.70;;;;;;5012496;28;20049;-77
2023/06/28 05:05:26;;;;;;;17.05;15.32;;;24.90;41.60;;;;;;5012663;28;20052;-78
2023/06/28 05:07:53;;;;;;;15.98;14.48;;;24.90;41.70;;;;;;5013002;28;20054;-78
2023/06/28 05:10:19;;;;;;;15.65;14.18;;;24.90;41.70;;;;;;5012823;28;20052;-81
2023/06/28 05:12:45;;;;;;;15.00;13.60;;;24.90;41.80;;;;;;5012649;28;20037;-80
2023/06/28 05:15:10;;;;;;;15.20;13.43;;;24.90;41.80;;;;;;5012601;28;20014;-81
2023/06/28 05:17:36;;;;;;;14.73;13.32;;;24.90;41.80;;;;;;5012347;28;20118;-81
2023/06/28 05:20:03;;;;;;;12.73;11.63;;;24.90;41.80;;;;;;5012639;28;20100;-81
2023/06/28 05:22:29;;;;;;;11.50;10.43;;;;;;;;;;5012476;28;20047;-82
2023/06/28 05:24:55;;;;;;;12.75;11.55;;;24.80;58.30;;;;;;5012854;28;20069;-80
2023/06/28 05:27:21;;;;;;;11.50;10.40;;;24.80;41.80;;;;;;5012513;28;20025;-77
2023/06/28 05:29:47;;;;;;;11.88;10.68;;;24.80;41.90;;;;;;5012728;28;20346;-78
2023/06/28 05:32:13;;;;;;;10.25;9.40;;;24.80;42.00;;;;;;5012125;28;20026;-79
2023/06/28 05:34:40;;;;;;;10.00;9.10;;;24.80;42.00;;;;;;5012419;28;20041;-78
2023/06/28 05:37:06;;;;;;;10.13;9.13;;;24.80;42.10;;;;;;5012233;28;20062;-78
2023/06/28 05:39:32;;;;;;;8.68;7.88;;;24.80;42.10;;;;;;5012270;28;20096;-78
2023/06/28 05:41:57;;;;;;;10.25;7.97;;;24.80;42.10;;;;;;5011803;28;20457;-78
2023/06/28 05:44:23;;;;;;;8.65;7.53;;;24.80;42.10;;;;;;5012185;28;20030;-78
2023/06/28 05:46:49;;;;;;;8.70;7.80;;;24.80;42.10;;;;;;5012273;28;20069;-78
2023/06/28 05:49:14;;;;;;;7.40;6.68;;;24.30;41.80;;;;;;5012024;28;20113;-78
2023/06/28 05:51:41;;;;;;;7.47;6.38;;;24.80;42.10;;;;;;5011942;28;20022;-78
2023/06/28 05:54:07;;;;;;;6.57;5.93;;;24.80;42.10;;;;;;5012560;28;20029;-77
2023/06/28 05:56:33;;;;;;;7.13;5.63;;;24.80;42.10;;;;;;5011849;28;20512;-77
2023/06/28 05:58:59;;;;;;;8.88;5.40;;;24.80;42.80;;;;;;5011808;28;20460;-77
2023/06/28 06:01:24;;;;;;;5.78;4.70;;;24.70;58.30;;;;;;5011832;28;20030;-77
2023/06/28 06:03:50;;;;;;;5.38;4.88;;;24.70;42.10;;;;;;5011729;28;20045;-77
2023/06/28 06:06:17;;;;;;;5.03;4.53;;;24.80;42.10;;;;;;5011878;28;20488;-77
2023/06/28 06:08:43;;;;;;;4.05;3.47;;;24.80;42.10;;;;;;5011810;28;20109;-76
2023/06/28 06:11:09;;;;;;;3.80;3.50;;;24.70;42.20;;;;;;5011890;28;20101;-77
2023/06/28 06:13:34;;;;;;;3.53;3.22;;;24.70;42.20;;;;;;5011840;28;20026;-76
2023/06/28 06:16:00;;;;;;;3.60;3.30;;;24.70;42.20;;;;;;5012096;28;20030;-76
2023/06/28 06:18:26;;;;;;;3.63;3.10;;;24.80;42.90;;;;;;5011983;28;20519;-78
2023/06/28 06:20:51;;;;;;;4.10;2.92;;;24.70;42.40;;;;;;5015772;28;20293;-76
2023/06/28 06:23:20;;;;;;;3.53;2.90;;;24.70;42.30;;;;;;5013373;28;20025;-78
2023/06/28 06:25:46;;;;;;;3.35;2.88;;;24.70;42.90;;;;;;5011518;28;20445;-77
2023/06/28 06:28:11;;;;;;;2.60;2.30;;;24.70;42.40;;;;;;5011566;28;20041;-78
2023/06/28 06:30:37;;;;;;;3.53;2.30;;;24.70;42.40;;;;;;5011662;28;20424;-76
2023/06/28 06:33:03;;;;;;;4.03;2.13;;;24.70;42.40;;;;;;5011637;28;20026;-76
2023/06/28 06:35:28;;;;;;;3.83;2.10;;;24.70;42.60;;;;;;5011639;28;20054;-78
2023/06/28 06:38:02;;;;;;;2.05;1.80;;;24.70;58.10;;;;;;5011602;28;20403;-76
2023/06/28 06:40:28;;;;;;;2.88;2.05;;;24.70;42.50;;;;;;4994962;28;20029;-76
2023/06/28 06:42:54;;;;;;;2.95;2.03;;;24.70;42.50;;;;;;5011397;28;20438;-74
2023/06/28 06:45:20;;;;;;;1.63;1.35;;;24.70;42.50;;;;;;5011297;28;20033;-73
2023/06/28 06:47:46;;;;;;;2.72;1.75;;;24.70;42.60;;;;;;5011266;28;20082;-75
2023/06/28 06:50:13;;;;;;;2.80;1.67;;;24.70;42.60;;;;;;5011169;28;20058;-74
2023/06/28 06:52:39;;;;;;;2.28;1.55;;;24.80;59.00;;;;;;5011551;28;20041;-74
2023/06/28 06:55:06;;;;;;;3.38;1.98;;;24.70;42.70;;;;;;5013158;28;20021;-74
2023/06/28 06:57:32;;;;;;;2.75;1.40;;;24.70;42.90;;;;;;5015194;28;20510;-77
2023/06/28 06:59:58;;;;;;;2.75;1.65;;;24.70;43.20;;;;;;5014755;28;20528;-77
2023/06/28 07:02:24;;;;;;;3.97;1.60;;;24.70;43.30;;;;;;5014865;28;20053;-77
2023/06/28 07:04:50;;;;;;;6.72;2.05;;;24.70;43.60;;;;;;5015099;28;20018;-77
2023/06/28 07:07:16;;;;;;;4.45;1.50;;;24.70;43.50;;;;;;5015087;28;20029;-77
2023/06/28 07:09:42;;;;;;;2.25;1.20;;;24.70;44.10;;;;;;5015580;28;20098;-77
2023/06/28 07:12:09;;;;;;;3.97;1.77;;;24.70;44.20;;;;;;5014876;28;20029;-77
2023/06/28 07:14:35;;;;;;;2.35;1.52;;;24.70;44.40;;;;;;5014656;28;20026;-77
2023/06/28 07:17:00;;;;;;;6.45;1.60;;;24.50;60.50;;;;;;5014591;28;20026;-76
2023/06/28 07:19:26;;;;;;;5.40;1.98;;;24.00;44.10;;;;;;5014807;28;20105;-77
2023/06/28 07:21:51;;;;;;;4.13;1.35;;;24.70;44.70;;;;;;5014824;28;20029;-77
2023/06/28 07:24:17;;;;;;;4.93;1.58;;;24.70;44.80;;;;;;5014587;28;20136;-77
2023/06/28 07:26:42;;;;;;;4.32;1.73;;;24.70;44.80;;;;;;5014546;28;20040;-77
2023/06/28 07:29:08;;;;;;;4.65;1.85;;;24.70;44.80;;;;;;4996695;28;20468;-77
2023/06/28 07:31:34;;;;;;;5.13;1.65;;;24.70;44.90;;;;;;5014443;28;20033;-77
2023/06/28 07:34:04;;;;;;;5.38;1.70;;;24.70;45.00;;;;;;5014371;28;20346;-77
2023/06/28 07:36:31;;;;;;;4.15;1.77;;;24.70;45.00;;;;;;5014273;28;20021;-77
2023/06/28 07:38:57;;;;;;;4.40;1.70;;;24.70;45.10;;;;;;5014474;28;20037;-77
2023/06/28 07:41:22;;;;;;;6.85;1.75;;;24.70;45.30;;;;;;4996350;28;20021;-79
2023/06/28 07:43:48;;;;;;;4.03;1.38;;;24.70;45.00;;;;;;5014166;28;20030;-77
2023/06/28 07:46:13;;;;;;;7.22;1.70;;;24.70;45.30;;;;;;5013979;28;20061;-77
2023/06/28 07:48:39;;;;;;;3.45;1.65;;;24.70;45.40;;;;;;5014075;28;20026;-75
2023/06/28 07:51:06;;;;;;;6.22;1.63;;;24.70;45.40;;;;;;5014258;28;20030;-77
2023/06/28 07:53:32;;;;;;;6.68;1.90;;;24.70;45.40;;;;;;5014414;28;20026;-77
2023/06/28 07:55:58;;;;;;;5.82;2.03;;;24.90;61.80;;;;;;5016653;28;20482;-78
2023/06/28 07:58:23;;;;;;;6.20;1.50;;;24.70;45.70;;;;;;5017713;28;20038;-77
2023/06/28 08:00:49;;;;;;;4.80;1.83;;;24.70;45.60;;;;;;5014063;28;20017;-77
2023/06/28 08:03:14;;;;;;;8.60;2.28;;;24.70;45.60;;;;;;5013451;28;20104;-76
2023/06/28 08:05:40;;;;;;;7.28;2.45;;;24.80;45.90;;;;;;5013568;28;20418;-76
2023/06/28 08:08:06;;;;;;;4.68;2.28;;;24.70;62.30;;;;;;5014095;28;20037;-76
2023/06/28 08:10:33;;;;;;;3.55;1.88;;;24.70;46.10;;;;;;5013724;28;20492;-77
2023/06/28 08:12:59;;;;;;;5.28;1.70;;;24.50;62.40;;;;;;5013612;28;20084;-80
2023/06/28 08:15:25;;;;;;;7.55;2.08;;;24.80;46.20;;;;;;5013414;28;20022;-80
2023/06/28 08:17:51;;;;;;;5.45;1.92;;;24.80;46.20;;;;;;5013843;28;20400;-76
2023/06/28 08:20:17;;;;;;;7.13;2.30;;;24.80;46.30;;;;;;5013850;28;20412;-80
2023/06/28 08:22:43;;;;;;;5.20;2.30;;;24.80;46.20;;;;;;5013513;28;20026;-81
2023/06/28 08:25:08;;;;;;;5.85;2.53;;;24.80;46.30;;;;;;5013432;28;20026;-83
2023/06/28 08:27:35;;;;;;;5.55;2.33;;;24.80;46.30;;;;;;5013451;28;20104;-83
2023/06/28 08:30:00;;;;;;;5.18;1.92;;;24.80;46.40;;;;;;5013286;28;20499;-82
2023/06/28 08:32:26;;;;;;;7.57;2.72;;;24.70;46.40;;;;;;5013185;28;20030;-83
2023/06/28 08:34:52;;;;;;;6.85;2.28;;;24.90;46.90;;;;;;5013371;28;20033;-84
2023/06/28 08:37:17;;;;;;;5.97;2.30;;;24.90;46.80;;;;;;5012800;28;20361;-83
2023/06/28 08:39:43;;;;;;;9.82;2.75;;;24.90;47.10;;;;;;5012923;28;20056;-83
2023/06/28 08:42:09;;;;;;;5.65;2.63;;;24.90;63.70;;;;;;5013014;28;20114;-83
2023/06/28 08:44:38;;;;;;;7.35;2.60;;;24.90;47.30;;;;;;5013035;28;20107;-81
2023/06/28 08:47:06;;;;;;;7.70;2.58;;;25.00;46.90;;;;;;5013132;28;20377;-83
2023/06/28 08:49:32;;;;;;;7.20;2.90;;;25.10;47.60;;;;;;5012850;28;20052;-83
2023/06/28 08:51:59;;;;;;;9.35;3.05;;;25.10;47.50;;;;;;4995413;28;20030;-83
2023/06/28 08:54:28;;;;;;;9.20;2.97;;;25.00;63.60;;;;;;5012713;28;20543;-83
2023/06/28 08:56:58;;;;;;;6.90;2.97;;;25.10;47.40;;;;;;5012846;28;20026;-83
2023/06/28 08:59:24;;;;;;;5.50;2.53;;;25.10;48.30;;;;;;5012660;28;20235;-83
2023/06/28 09:01:55;;;;;;;7.05;2.70;;;25.10;47.40;;;;;;5012774;28;20080;-83
2023/06/28 09:04:28;;;;;;;7.28;2.72;;;25.20;47.50;;;;;;5012563;28;20070;-76
2023/06/28 09:06:55;;;;;;;5.65;2.40;;;25.20;47.60;;;;;;5012339;28;20026;-78
2023/06/28 09:09:23;;;;;;;7.68;2.70;;;25.20;47.40;;;;;;5012522;28;20088;-78
2023/06/28 09:11:50;;;;;;;4.93;2.67;;;25.20;47.60;;;;;;5012258;28;20121;-78
2023/06/28 09:14:15;;;;;;;4.90;2.78;;;25.40;47.70;;;;;;5012409;28;20032;-78
2023/06/28 09:16:41;;;;;;;5.80;2.70;;;25.20;47.80;;;;;;5011753;28;20069;-78
2023/06/28 09:19:06;;;;;;;5.82;3.03;;;25.30;47.80;;;;;;5012493;28;20033;-78
2023/06/28 09:21:33;;;;;;;8.35;3.00;;;25.30;47.80;;;;;;5012173;28;20040;-79
2023/06/28 09:24:00;;;;;;;5.93;2.53;;;25.30;48.20;;;;;;5012373;28;20034;-78
2023/06/28 09:26:33;;;;;;;7.65;2.78;;;25.30;48.00;;;;;;5012172;28;20057;-79
2023/06/28 09:29:10;;;;;;;6.53;3.15;;;25.30;48.30;;;;;;5012346;28;20061;-78
2023/06/28 09:31:46;;;;;;;7.68;2.90;;;25.30;48.30;;;;;;5011919;28;20018;-80
2023/06/28 09:34:12;;;;;;;6.53;2.65;;;25.30;48.30;;;;;;5011959;28;20080;-80
2023/06/28 09:36:37;;;;;;;6.82;2.55;;;25.40;48.00;;;;;;5012022;28;20026;-80
2023/06/28 09:39:09;;;;;;;5.65;2.63;;;25.40;48.10;;;;;;5011904;28;20088;-80
2023/06/28 09:41:42;;;;;;;6.70;2.58;;;25.40;48.30;;;;;;5012120;28;20498;-80
2023/06/28 09:44:11;;;;;;;7.93;2.75;;;25.50;48.20;;;;;;5012176;28;20514;-80
2023/06/28 09:46:44;;;;;;;5.75;2.65;;;25.50;48.30;;;;;;5012005;28;20053;-80
2023/06/28 09:49:20;;;;;;;6.75;2.72;;;25.50;48.50;;;;;;5012073;28;20034;-81
2023/06/28 09:51:56;;;;;;;5.68;2.58;;;25.50;48.20;;;;;;5012381;28;20068;-85
2023/06/28 09:54:22;;;;;;;5.47;2.20;;;;;;;;;;5012513;28;20025;-84
2023/06/28 09:56:53;;;;;;;4.95;2.25;;;25.30;50.90;;;;;;5012046;28;20045;-86
2023/06/28 09:59:20;;;;;;;8.20;3.05;;;25.50;48.60;;;;;;5012556;28;20069;-87
2023/06/28 10:01:51;;;;;;;6.10;2.78;;;25.60;48.60;;;;;;5012603;28;20044;-90
2023/06/28 10:04:54;;;;;;;8.35;3.08;;;25.50;48.50;;;;;;4994894;28;20041;-90
2023/06/28 10:07:20;;;;;;;9.32;3.40;;;25.60;48.90;;;;;;5012236;28;20096;-89
2023/06/28 10:09:46;;;;;;;9.95;3.38;;;25.50;64.80;;;;;;4994342;28;20037;-77
2023/06/28 10:12:18;;;;;;;9.30;3.25;;;25.60;48.60;;;;;;4994208;28;20066;-80
2023/06/28 10:14:56;;;;;;;8.27;3.10;;;25.60;49.30;;;;;;4993924;28;20096;-77
2023/06/28 10:17:23;;;;;;;7.03;2.95;;;25.60;49.00;;;;;;5011679;28;20040;-78
2023/06/28 10:19:50;;;;;;;6.45;3.20;;;25.70;48.70;;;;;;5011890;28;20099;-79
2023/06/28 10:22:16;;;;;;;10.95;3.33;;;25.70;49.00;;;;;;5011660;28;20472;-77
2023/06/28 10:24:42;;;;;;;6.72;3.25;;;25.60;65.20;;;;;;5012282;28;20357;-78
2023/06/28 10:27:09;;;;;;;10.55;2.97;;;25.70;49.20;;;;;;5011445;28;20037;-78
2023/06/28 10:29:37;;;;;;;8.57;3.22;;;25.90;65.10;;;;;;5014791;28;20033;-76
2023/06/28 10:32:06;;;;;;;5.18;3.33;;;25.70;49.10;;;;;;5015606;28;20488;-78
2023/06/28 10:34:34;;;;;;;6.97;3.05;;;25.70;49.00;;;;;;5015526;28;20030;-77
2023/06/28 10:37:01;;;;;;;5.97;2.95;;;25.80;48.90;;;;;;5015635;28;20097;-83
2023/06/28 10:39:28;;;;;;;4.55;2.92;;;25.70;49.30;;;;;;4997821;28;20026;-79
2023/06/28 10:41:58;;;;;;;6.97;3.08;;;25.70;49.10;;;;;;5015174;28;20058;-77
2023/06/28 10:44:24;;;;;;;7.53;3.25;;;25.70;49.30;;;;;;5015605;28;20025;-77
2023/06/28 10:47:09;;;;;;;6.57;3.15;;;26.00;65.80;;;;;;5015132;28;20026;-77
2023/06/28 10:49:36;;;;;;;10.40;3.83;;;25.80;49.60;;;;;;5015395;28;20097;-75
2023/06/28 10:52:02;;;;;;;7.63;3.45;;;25.80;49.50;;;;;;5015187;28;20441;-75
2023/06/28 10:54:27;;;;;;;7.05;3.35;;;25.80;49.40;;;;;;5015256;28;20109;-75
2023/06/28 10:56:58;;;;;;;7.72;3.38;;;25.80;50.00;;;;;;5014977;28;20029;-80
2023/06/28 10:59:26;;;;;;;5.22;3.20;;;25.80;50.10;;;;;;5015258;28;20053;-81
2023/06/28 11:01:53;;;;;;;7.05;3.65;;;25.80;65.90;;;;;;5015378;28;20026;-77
2023/06/28 11:04:24;;;;;;;7.57;4.18;;;25.80;49.60;;;;;;5014990;28;20073;-81
2023/06/28 11:07:16;;;;;;;10.07;4.15;;;25.90;49.90;;;;;;5015343;28;20017;-79
2023/06/28 11:10:16;;;;;;;5.50;3.67;;;26.00;65.80;;;;;;5014909;28;20022;-81
2023/06/28 11:12:46;;;;;;;8.80;4.72;;;26.00;49.80;;;;;;5015081;28;20022;-81
2023/06/28 11:15:13;;;;;;;8.75;3.80;;;26.00;50.00;;;;;;5014890;28;20029;-81
2023/06/28 11:17:39;;;;;;;6.88;3.95;;;26.00;50.10;;;;;;5014987;28;20041;-81
2023/06/28 11:20:11;;;;;;;7.57;4.55;;;26.00;50.40;;;;;;5014662;28;20025;-81
2023/06/28 11:23:06;;;;;;;6.93;4.43;;;26.00;50.00;;;;;;5014843;28;20110;-84
2023/06/28 11:25:32;;;;;;;7.55;4.28;;;26.00;49.50;;;;;;4994555;28;20034;-88
2023/06/28 11:27:58;;;;;;;7.53;4.28;;;26.00;49.90;;;;;;5014827;28;20516;-87
2023/06/28 11:30:47;;;;;;;9.00;4.97;;;26.00;50.00;;;;;;5015437;28;20044;-86
2023/06/28 11:33:14;;;;;;;8.77;4.60;;;26.00;49.40;;;;;;4996596;28;20385;-83
2023/06/28 11:35:41;;;;;;;10.20;5.10;;;26.00;49.90;;;;;;5014881;28;20026;-83
2023/06/28 11:38:08;;;;;;;12.10;5.20;;;26.00;49.90;;;;;;5015277;28;20030;-82
2023/06/28 11:40:35;;;;;;;8.82;5.60;;;26.00;50.40;;;;;;5015407;28;20029;-84
2023/06/28 11:43:01;;;;;;;11.85;5.82;;;26.00;49.70;;;;;;5015073;28;20022;-85
2023/06/28 11:45:32;;;;;;;8.60;5.68;;;26.00;50.50;;;;;;5014654;28;20030;-83
2023/06/28 11:48:01;;;;;;;8.68;6.45;;;26.00;49.80;;;;;;5014824;28;20137;-84
2023/06/28 11:50:28;;;;;;;8.90;5.67;;;26.00;49.90;;;;;;5014786;28;20392;-84
2023/06/28 11:52:55;;;;;;;8.10;5.72;;;25.90;65.50;;;;;;5014575;28;20364;-83
2023/06/28 11:55:21;;;;;;;10.40;6.20;;;26.00;49.80;;;;;;5014446;28;20380;-85
2023/06/28 11:57:47;;;;;;;7.70;6.10;;;26.00;49.70;;;;;;5014366;28;20068;-85
2023/06/28 12:00:15;;;;;;;8.40;5.82;;;26.00;49.70;;;;;;5014431;28;20084;-83
2023/06/28 12:02:51;;;;;;;7.57;6.53;;;26.00;49.50;;;;;;4996059;28;20044;-84
2023/06/28 12:05:18;;;;;;;8.95;6.18;;;26.10;49.80;;;;;;5014026;28;20518;-83
2023/06/28 12:07:48;;;;;;;7.60;5.60;;;26.00;49.60;;;;;;5014279;28;20101;-84
2023/06/28 12:10:16;;;;;;;7.45;5.82;;;26.20;50.90;;;;;;5005946;28;20032;-83
2023/06/28 12:12:42;;;;;;;8.50;6.00;;;26.10;49.80;;;;;;5013875;28;20109;-77
2023/06/28 12:15:15;;;;;;;8.82;5.82;;;26.10;50.20;;;;;;5013660;28;20110;-77
2023/06/28 12:17:41;;;;;;;8.10;5.80;;;26.10;49.80;;;;;;5013681;28;20403;-77
2023/06/28 12:20:09;;;;;;;8.32;5.60;;;26.10;65.40;;;;;;5013948;28;20030;-77
2023/06/28 12:22:38;;;;;;;7.35;5.97;;;26.10;49.60;;;;;;5013612;28;20026;-77
2023/06/28 12:25:05;;;;;;;8.10;5.82;;;26.10;49.50;;;;;;5013607;28;20029;-77
2023/06/28 12:27:31;;;;;;;6.28;5.13;;;26.10;49.50;;;;;;5013989;28;20018;-77
2023/06/28 12:29:57;;;;;;;9.23;5.60;;;26.10;49.60;;;;;;5013454;28;20037;-77
2023/06/28 12:32:24;;;;;;;7.63;5.75;;;26.10;49.60;;;;;;5013298;28;20033;-77
2023/06/28 12:34:51;;;;;;;8.43;5.93;;;26.10;49.60;;;;;;5013352;28;20049;-76
2023/06/28 12:37:17;;;;;;;7.70;6.00;;;26.10;50.20;;;;;;5013179;28;20022;-77
2023/06/28 12:39:43;;;;;;;9.02;5.88;;;26.10;50.00;;;;;;5013269;28;20025;-76
2023/06/28 12:42:20;;;;;;;6.95;5.55;;;26.30;65.70;;;;;;5013152;28;20021;-77
2023/06/28 12:44:49;;;;;;;11.05;5.78;;;26.10;49.40;;;;;;5014092;28;20030;-78